createdAt,value
2019-05-10T05:01:21.431Z,96.10
2019-05-10T05:03:51.404Z,96.00
2019-05-10T05:06:21.433Z,95.70
2019-05-10T05:08:51.412Z,95.90
2019-05-10T05:11:21.415Z,96.20
2019-05-10T05:13:51.409Z,95.80
2019-05-10T05:16:21.369Z,95.70
2019-05-10T05:18:51.352Z,95.50
2019-05-10T05:21:21.333Z,95.50
2019-05-10T05:23:51.296Z,95.40
2019-05-10T05:26:21.303Z,95.40
2019-05-10T05:28:51.274Z,95.40
2019-05-10T05:31:21.230Z,95.30
2019-05-10T05:33:51.225Z,95.30
2019-05-10T05:36:21.181Z,95.30
2019-05-10T05:38:51.162Z,95.20
2019-05-10T05:41:21.144Z,95.20
2019-05-10T05:43:51.091Z,95.00
2019-05-10T05:46:21.069Z,95.10
2019-05-10T05:48:51.637Z,95.20
2019-05-10T05:51:21.720Z,95.10
2019-05-10T05:53:51.732Z,95.00
2019-05-10T05:56:21.709Z,94.90
2019-05-10T05:58:51.665Z,94.70
2019-05-10T06:01:26.087Z,94.70
2019-05-10T06:03:53.276Z,94.90
2019-05-10T06:06:23.686Z,94.50
2019-05-10T06:08:54.478Z,94.50
2019-05-10T06:11:29.871Z,94.20
2019-05-10T06:13:56.951Z,94.20
2019-05-10T06:16:26.915Z,94.50
2019-05-10T06:18:56.896Z,94.30
2019-05-10T06:21:26.911Z,94.20
2019-05-10T06:23:59.396Z,94.10
2019-05-10T06:26:28.917Z,94.30
2019-05-10T06:29:03.696Z,94.40
2019-05-10T06:31:30.501Z,93.80
2019-05-10T06:34:00.517Z,93.40
2019-05-10T06:36:30.472Z,92.80
2019-05-10T06:39:00.583Z,92.70
2019-05-10T06:41:32.564Z,93.60
2019-05-10T06:44:02.184Z,93.50
2019-05-10T06:46:32.173Z,92.90
2019-05-10T06:49:09.746Z,92.90
2019-05-10T06:51:33.904Z,92.80
2019-05-10T06:54:03.973Z,92.30
2019-05-10T06:56:33.925Z,92.30
2019-05-10T06:59:12.959Z,92.50
2019-05-10T07:01:38.179Z,92.20
2019-05-10T07:04:07.169Z,91.90
2019-05-10T07:06:38.336Z,91.40
2019-05-10T07:09:08.416Z,91.20
2019-05-10T07:11:38.399Z,90.40
2019-05-10T07:14:08.358Z,88.10
2019-05-10T07:16:38.364Z,86.80
2019-05-10T07:19:08.318Z,86.70
2019-05-10T07:21:39.101Z,87.40
2019-05-10T07:24:09.901Z,85.50
2019-05-10T07:26:39.896Z,83.80
2019-05-10T07:29:09.868Z,83.00
2019-05-10T07:31:39.826Z,80.70
2019-05-10T07:34:15.516Z,81.40
2019-05-10T07:36:42.339Z,81.30
2019-05-10T07:39:12.436Z,81.90
2019-05-10T07:41:42.533Z,81.70
2019-05-10T07:44:12.500Z,80.10
2019-05-10T07:46:46.453Z,80.90
2019-05-10T07:49:14.044Z,80.50
2019-05-10T07:51:44.042Z,81.00
2019-05-10T07:54:13.994Z,79.60
2019-05-10T07:56:45.807Z,80.10
2019-05-10T07:59:16.442Z,81.40
2019-05-10T08:01:49.164Z,81.30
2019-05-10T08:04:28.049Z,79.10
2019-05-10T08:06:52.031Z,78.50
2019-05-10T08:09:22.011Z,78.20
2019-05-10T08:11:54.270Z,78.20
2019-05-10T08:14:25.471Z,77.00
2019-05-10T08:16:58.550Z,76.70
2019-05-10T08:19:26.805Z,77.30
2019-05-10T08:22:01.775Z,75.90
2019-05-10T08:24:28.376Z,76.40
2019-05-10T08:27:08.117Z,76.40
2019-05-10T08:29:30.014Z,75.80
2019-05-10T08:31:59.967Z,77.20
2019-05-10T08:34:35.509Z,77.00
2019-05-10T08:37:02.691Z,76.80
2019-05-10T08:39:44.168Z,76.80
2019-05-10T08:42:19.740Z,77.90
2019-05-10T08:44:36.100Z,77.50
2019-05-10T08:47:07.767Z,76.80
2019-05-10T08:49:53.857Z,76.70
2019-05-10T08:52:12.189Z,73.50
2019-05-10T08:54:42.408Z,72.50
2019-05-10T08:57:18.457Z,72.10
2019-05-10T08:59:44.369Z,71.70
2019-05-10T09:02:14.628Z,69.60
2019-05-10T09:04:50.237Z,65.90
2019-05-10T09:07:17.270Z,67.50
2019-05-10T09:09:50.086Z,67.10
2019-05-10T09:12:18.950Z,68.00
2019-05-10T09:14:49.037Z,66.20
2019-05-10T09:17:23.593Z,65.50
2019-05-10T09:19:51.799Z,63.90
2019-05-10T09:22:24.096Z,62.90
2019-05-10T09:24:53.576Z,60.60
2019-05-10T09:27:23.540Z,60.20
2019-05-10T09:29:53.533Z,59.40
2019-05-10T09:32:28.591Z,59.60
2019-05-10T09:34:59.881Z,60.70
2019-05-10T09:37:26.704Z,58.80
2019-05-10T09:40:08.103Z,60.00
2019-05-10T09:42:34.848Z,57.50
2019-05-10T09:45:02.881Z,58.30
2019-05-10T09:47:33.074Z,58.60
2019-05-10T09:50:03.250Z,57.90
2019-05-10T09:52:33.226Z,59.00
2019-05-10T09:55:03.940Z,58.10
2019-05-10T09:57:35.847Z,58.50
2019-05-10T10:00:07.945Z,57.90
2019-05-10T10:02:40.526Z,56.10
2019-05-10T10:05:10.009Z,56.00
2019-05-10T10:07:39.973Z,56.80
2019-05-10T10:10:12.726Z,58.20
2019-05-10T10:12:42.020Z,59.30
2019-05-10T10:15:18.834Z,62.10
2019-05-10T10:17:43.716Z,64.20
2019-05-10T10:20:14.896Z,66.70
2019-05-10T10:22:52.667Z,67.70
2019-05-10T10:25:17.724Z,69.40
2019-05-10T10:27:48.071Z,70.40
2019-05-10T10:30:21.544Z,70.40
2019-05-10T10:32:50.048Z,71.30
2019-05-10T10:35:26.595Z,69.60
2019-05-10T10:37:52.681Z,69.80
2019-05-10T10:40:22.725Z,69.60
2019-05-10T10:42:52.681Z,69.80
2019-05-10T10:45:22.691Z,68.90
2019-05-10T10:47:52.680Z,68.80
2019-05-10T10:50:22.729Z,67.70
2019-05-10T10:52:52.739Z,68.30
2019-05-10T10:55:22.717Z,71.40
2019-05-10T10:57:52.720Z,72.50
2019-05-10T11:00:28.337Z,72.50
2019-05-10T11:02:58.424Z,70.30
2019-05-10T11:05:28.381Z,69.30
2019-05-10T11:08:00.880Z,68.50
2019-05-10T11:10:31.779Z,69.10
2019-05-10T11:13:10.721Z,67.70
2019-05-10T11:15:36.380Z,68.70
2019-05-10T11:18:05.041Z,68.20
2019-05-10T11:20:35.036Z,68.90
2019-05-10T11:23:05.021Z,70.80
2019-05-10T11:25:35.013Z,72.10
2019-05-10T11:28:04.977Z,72.70
2019-05-10T11:30:35.059Z,73.30
2019-05-10T11:33:05.034Z,73.70
2019-05-10T11:35:35.053Z,75.40
2019-05-10T11:38:06.722Z,73.60
2019-05-10T11:40:36.819Z,73.70
2019-05-10T11:43:06.787Z,72.50
2019-05-10T11:45:36.872Z,71.90
2019-05-10T11:48:06.997Z,70.10
2019-05-10T11:50:36.955Z,67.60
2019-05-10T11:53:12.502Z,60.90
2019-05-10T11:55:42.124Z,59.50
2019-05-10T11:58:13.165Z,59.20
2019-05-10T12:00:41.958Z,59.70
2019-05-10T12:03:18.169Z,61.80
2019-05-10T12:05:43.588Z,59.90
2019-05-10T12:08:13.560Z,59.90
2019-05-10T12:10:52.799Z,49.10
2019-05-10T12:13:19.735Z,45.00
2019-05-10T12:15:51.750Z,47.00
2019-05-10T12:18:26.257Z,41.80
2019-05-10T12:20:58.620Z,35.00
2019-05-10T12:23:27.772Z,30.50
2019-05-10T12:27:09.290Z,28.90
2019-05-10T12:28:29.004Z,29.80
2019-05-10T12:30:56.566Z,32.70
2019-05-10T12:33:27.797Z,33.00
2019-05-10T12:35:58.905Z,35.80
2019-05-10T12:38:29.601Z,35.80
2019-05-10T12:41:01.341Z,35.50
2019-05-10T12:43:31.679Z,36.70
2019-05-10T12:46:01.848Z,29.80
2019-05-10T12:48:35.610Z,32.40
2019-05-10T12:51:11.214Z,29.70
2019-05-10T12:53:36.732Z,32.60
2019-05-10T12:56:08.029Z,31.90
2019-05-10T12:58:38.005Z,35.20
2019-05-10T13:01:07.964Z,33.10
2019-05-10T13:03:37.920Z,35.10
2019-05-10T13:06:07.996Z,35.20
2019-05-10T13:08:37.951Z,37.10
2019-05-10T13:11:08.027Z,37.60
2019-05-10T13:13:37.916Z,39.00
2019-05-10T13:16:09.510Z,41.70
2019-05-10T13:18:50.455Z,40.20
2019-05-10T13:21:19.541Z,40.00
2019-05-10T13:23:42.734Z,39.30
2019-05-10T13:26:12.792Z,39.10
2019-05-10T13:28:42.888Z,39.00
2019-05-10T13:31:15.375Z,39.00
2019-05-10T13:33:45.420Z,40.20
2019-05-10T13:36:15.375Z,42.70
2019-05-10T13:38:49.088Z,43.60
2019-05-10T13:41:24.481Z,44.90
2019-05-10T13:43:49.868Z,46.50
2019-05-10T13:46:19.823Z,47.80
2019-05-10T13:48:49.981Z,48.70
2019-05-10T13:51:19.956Z,49.60
2019-05-10T13:53:53.844Z,50.10
2019-05-10T13:56:21.791Z,50.10
2019-05-10T13:58:52.222Z,50.60
2019-05-10T14:01:22.745Z,50.40
2019-05-10T14:03:59.822Z,50.60
2019-05-10T14:06:25.234Z,50.20
2019-05-10T14:08:55.764Z,51.10
2019-05-10T14:11:26.393Z,51.40
2019-05-10T14:13:57.024Z,52.00
2019-05-10T14:16:28.677Z,52.00
2019-05-10T14:18:59.410Z,52.00
2019-05-10T14:21:30.042Z,52.60
2019-05-10T14:24:01.799Z,52.60
2019-05-10T14:26:32.454Z,51.70
2019-05-10T14:29:03.059Z,51.80
2019-05-10T14:31:34.026Z,52.40
2019-05-10T14:34:20.044Z,53.40
2019-05-10T14:36:40.866Z,53.70
2019-05-10T14:39:09.471Z,54.40
2019-05-10T14:41:40.197Z,54.80
2019-05-10T14:44:10.939Z,55.00
2019-05-10T14:46:41.568Z,55.00
2019-05-10T14:49:12.097Z,55.00
2019-05-10T14:51:57.808Z,55.40
2019-05-10T14:54:14.383Z,55.20
2019-05-10T14:56:44.910Z,54.80
2019-05-10T14:59:15.443Z,55.60
2019-05-10T15:01:47.724Z,55.70
2019-05-10T15:04:35.753Z,55.50
2019-05-10T15:06:50.097Z,56.00
2019-05-10T15:09:24.110Z,56.30
2019-05-10T15:11:53.654Z,54.90
2019-05-10T15:14:24.367Z,54.50
2019-05-10T15:16:56.411Z,53.60
2019-05-10T15:19:31.018Z,53.90
2019-05-10T15:21:59.252Z,54.00
2019-05-10T15:24:29.934Z,53.30
2019-05-10T15:27:00.565Z,53.70
2019-05-10T15:29:32.219Z,53.40
2019-05-10T15:32:04.181Z,53.60
2019-05-10T15:34:34.508Z,54.40
2019-05-10T15:37:09.206Z,53.60
2019-05-10T15:39:37.200Z,54.90
2019-05-10T15:42:07.828Z,55.00
2019-05-10T15:44:38.129Z,55.60
2019-05-10T15:47:14.546Z,54.40
2019-05-10T15:49:40.847Z,54.20
2019-05-10T15:52:17.399Z,54.10
2019-05-10T15:54:44.769Z,54.60
2019-05-10T15:57:20.340Z,55.20
2019-05-10T15:59:50.668Z,55.80
2019-05-10T16:02:19.222Z,56.00
2019-05-10T16:04:49.309Z,56.00
2019-05-10T16:07:19.417Z,56.90
2019-05-10T16:09:49.929Z,57.40
2019-05-10T16:12:21.094Z,57.40
2019-05-10T16:14:51.127Z,57.60
2019-05-10T16:17:24.001Z,57.30
2019-05-10T16:19:59.435Z,56.50
2019-05-10T16:22:30.283Z,56.40
2019-05-10T16:25:00.869Z,56.30
2019-05-10T16:27:34.105Z,55.50
2019-05-10T16:30:02.607Z,54.70
2019-05-10T16:32:34.568Z,53.90
2019-05-10T16:35:12.367Z,53.20
2019-05-10T16:37:37.669Z,52.50
2019-05-10T16:40:08.806Z,52.70
2019-05-10T16:42:39.494Z,53.40
2019-05-10T16:45:10.088Z,54.00
2019-05-10T16:47:40.539Z,54.50
2019-05-10T16:50:11.952Z,55.10
2019-05-10T16:52:42.388Z,55.60
2019-05-10T16:55:13.111Z,56.40
2019-05-10T16:57:43.638Z,57.40
2019-05-10T17:00:14.290Z,57.80
2019-05-10T17:02:44.693Z,58.60
2019-05-10T17:05:17.211Z,59.40
2019-05-10T17:07:47.492Z,60.10
2019-05-10T17:10:18.223Z,61.30
2019-05-10T17:12:48.650Z,61.50
2019-05-10T17:15:19.075Z,61.10
2019-05-10T17:17:49.707Z,61.50
2019-05-10T17:20:20.335Z,62.10
2019-05-10T17:22:50.967Z,62.30
2019-05-10T17:25:22.735Z,63.00
2019-05-10T17:27:57.556Z,64.10
2019-05-10T17:30:27.813Z,63.80
2019-05-10T17:33:03.748Z,65.30
2019-05-10T17:35:29.855Z,64.90
2019-05-10T17:38:00.194Z,64.80
2019-05-10T17:40:32.139Z,65.20
2019-05-10T17:43:02.899Z,66.40
2019-05-10T17:45:34.901Z,66.50
2019-05-10T17:48:08.674Z,66.00
2019-05-10T17:50:37.637Z,65.70
2019-05-10T17:53:09.182Z,65.70
2019-05-10T17:55:39.614Z,66.30
2019-05-10T17:58:10.343Z,66.80
2019-05-10T18:00:40.873Z,66.30
2019-05-10T18:03:11.498Z,66.20
2019-05-10T18:05:46.688Z,66.30
2019-05-10T18:08:15.049Z,66.40
2019-05-10T18:10:45.745Z,67.20
2019-05-10T18:13:16.376Z,67.10
2019-05-10T18:15:47.007Z,67.40
2019-05-10T18:18:18.767Z,67.50
2019-05-10T18:20:49.498Z,68.10
2019-05-10T18:23:22.706Z,68.70
2019-05-10T18:25:58.459Z,68.70
2019-05-10T18:28:25.178Z,69.00
2019-05-10T18:30:56.116Z,68.20
2019-05-10T18:33:26.851Z,68.90
2019-05-10T18:35:57.686Z,70.00
2019-05-10T18:38:30.839Z,70.00
2019-05-10T18:41:05.379Z,71.00
2019-05-10T18:43:35.370Z,70.20
2019-05-10T18:46:05.018Z,71.00
2019-05-10T18:48:37.593Z,72.20
2019-05-10T18:51:08.459Z,72.40
2019-05-10T18:53:40.186Z,72.00
2019-05-10T18:56:11.854Z,73.00
2019-05-10T18:58:43.812Z,73.30
2019-05-10T19:01:14.537Z,73.90
2019-05-10T19:03:46.707Z,73.10
2019-05-10T19:06:18.509Z,73.90
2019-05-10T19:08:49.092Z,74.00
2019-05-10T19:11:19.770Z,74.00
2019-05-10T19:13:53.959Z,74.20
2019-05-10T19:16:26.111Z,74.50
2019-05-10T19:18:56.081Z,74.10
2019-05-10T19:21:30.639Z,74.10
2019-05-10T19:24:00.653Z,73.40
2019-05-10T19:26:31.725Z,75.60
2019-05-10T19:29:05.383Z,73.70
2019-05-10T19:31:38.181Z,75.10
2019-05-10T19:34:08.970Z,75.50
2019-05-10T19:36:41.896Z,75.50
2019-05-10T19:39:12.628Z,75.50
2019-05-10T19:41:44.519Z,75.80
2019-05-10T19:44:15.329Z,75.70
2019-05-10T19:46:45.958Z,75.90
2019-05-10T19:49:16.791Z,75.90
2019-05-10T19:51:50.296Z,75.30
2019-05-10T19:54:21.533Z,75.40
2019-05-10T19:56:55.475Z,75.50
2019-05-10T19:59:27.097Z,75.80
2019-05-10T20:01:59.059Z,75.60
2019-05-10T20:04:29.694Z,75.60
2019-05-10T20:07:00.455Z,76.10
2019-05-10T20:09:31.151Z,76.20
2019-05-10T20:12:01.679Z,76.70
2019-05-10T20:14:32.515Z,77.10
2019-05-10T20:17:03.152Z,77.60
2019-05-10T20:19:33.781Z,77.90
2019-05-10T20:22:04.510Z,78.60
2019-05-10T20:24:35.242Z,78.90
2019-05-10T20:27:05.873Z,78.70
2019-05-10T20:29:36.502Z,79.20
2019-05-10T20:32:07.673Z,80.10
2019-05-10T20:34:39.645Z,80.50
2019-05-10T20:37:10.343Z,81.00
2019-05-10T20:39:40.969Z,81.20
2019-05-10T20:42:11.707Z,81.60
2019-05-10T20:44:42.640Z,82.00
2019-05-10T20:47:13.273Z,82.80
2019-05-10T20:49:45.336Z,83.10
2019-05-10T20:52:16.013Z,83.10
2019-05-10T20:54:47.558Z,83.40
2019-05-10T20:57:18.252Z,83.80
2019-05-10T20:59:49.090Z,84.20
2019-05-10T21:02:19.717Z,84.50
2019-05-10T21:04:50.277Z,85.30
2019-05-10T21:07:21.799Z,86.00
2019-05-10T21:09:52.325Z,86.30
2019-05-10T21:12:22.857Z,86.90
2019-05-10T21:14:53.381Z,87.20
2019-05-10T21:17:24.115Z,87.80
2019-05-10T21:19:54.642Z,88.70
2019-05-10T21:22:25.274Z,89.30
2019-05-10T21:24:55.696Z,88.80
2019-05-10T21:27:26.433Z,87.80
2019-05-10T21:29:57.061Z,88.60
